Time;durP1;ratioP1;P1;durP2;ratioP2;P2;SDS_P1;SDS_P2;PMS_P1;PMS_P2;Temp;Humidity;BMP_temperature;BMP_pressure;BME280_temperature;BME280_humidity;BME280_pressure;Samples;Min_cycle;Max_cycle;Signal;HPM_P1;HPM_P2
2023/06/25 00:02:07;;;;;;;;;;;;;;;26.66;46.18;99452.97;5092728;28;19915;-43
2023/06/25 00:04:32;;;;;;;;;;;;;;;25.92;47.42;99460.69;5092785;28;20350;-43
2023/06/25 00:06:58;;;;;;;;;;;;;;;25.75;47.95;99464.06;5092098;28;19951;-40
2023/06/25 00:09:23;;;;;;;;;;;;;;;26.04;48.30;99471.00;5092774;28;19993;-43
2023/06/25 00:11:48;;;;;;;;;;;;;;;26.44;46.58;99467.47;5092694;28;20376;-42
2023/06/25 00:14:14;;;;;;;;;;;;;;;26.68;45.84;99461.63;5092788;28;20007;-42
2023/06/25 00:16:39;;;;;;;;;;;;;;;26.50;46.06;99467.03;5092699;28;20268;-43
2023/06/25 00:19:04;;;;;;;;;;;;;;;25.83;47.52;99462.50;5092230;28;20287;-42
2023/06/25 00:21:29;;;;;;;;;;;;;;;25.67;48.43;99459.38;5092638;28;19912;-42
2023/06/25 00:23:55;;;;;;;;;;;;;;;25.92;47.63;99460.69;5092490;28;20312;-43
2023/06/25 00:26:20;;;;;;;;;;;;;;;26.20;47.03;99465.94;5092545;28;19927;-43
2023/06/25 00:28:45;;;;;;;;;;;;;;;26.18;46.91;99472.81;5092615;28;19912;-43
2023/06/25 00:31:12;;;;;;;;;;;;;;;26.18;46.93;99481.00;5092307;28;19977;-43
2023/06/25 00:33:38;;;;;;;;;;;;;;;26.23;47.47;99476.22;5092293;28;19916;-42
2023/06/25 00:36:07;;;;;;;;;;;;;;;26.41;46.90;99468.13;5092126;28;19919;-43
2023/06/25 00:38:37;;;;;;;;;;;;;;;26.60;46.20;99471.41;5092102;28;19920;-43
2023/06/25 00:41:02;;;;;;;;;;;;;;;26.62;46.01;99469.16;5092047;28;19931;-43
2023/06/25 00:43:28;;;;;;;;;;;;;;;26.77;45.82;99461.63;5092193;28;19912;-42
2023/06/25 00:45:53;;;;;;;;;;;;;;;26.83;45.74;99468.56;5092257;28;19916;-45
2023/06/25 00:48:21;;;;;;;;;;;;;;;26.69;46.28;99472.25;5091925;28;20360;-44
2023/06/25 00:50:47;;;;;;;;;;;;;;;26.75;46.17;99472.91;5091796;28;19940;-43
2023/06/25 00:53:12;;;;;;;;;;;;;;;26.57;46.40;99471.22;5091716;28;19923;-43
2023/06/25 00:55:38;;;;;;;;;;;;;;;26.66;45.71;99469.34;5091613;28;19917;-43
2023/06/25 00:58:03;;;;;;;;;;;;;;;26.57;46.00;99472.00;5091756;28;19924;-43
2023/06/25 01:00:30;;;;;;;;;;;;;;;26.49;46.34;99473.59;5091539;28;19912;-43
2023/06/25 01:03:03;;;;;;;;;;;;;;;26.21;46.99;99459.38;5091541;28;20034;-43
2023/06/25 01:05:47;;;;;;;;;;;;;;;26.29;47.12;99472.25;5091593;28;19912;-43
2023/06/25 01:08:14;;;;;;;;;;;;;;;26.41;46.04;99463.47;5091628;28;19919;-45
2023/06/25 01:10:40;;;;;;;;;;;;;;;26.51;45.76;99465.09;5091611;28;20010;-43
2023/06/25 01:13:05;;;;;;;;;;;;;;;26.37;45.87;99467.13;5091667;28;19999;-43
2023/06/25 01:15:31;;;;;;;;;;;;;;;26.29;46.41;99466.78;5091373;28;19912;-43
2023/06/25 01:17:57;;;;;;;;;;;;;;;26.51;45.84;99456.91;5091289;28;20014;-43
2023/06/25 01:20:27;;;;;;;;;;;;;;;26.40;45.89;99458.31;5091365;28;19939;-42
2023/06/25 01:22:54;;;;;;;;;;;;;;;26.14;46.30;99457.09;5091219;28;20014;-43
2023/06/25 01:25:19;;;;;;;;;;;;;;;25.97;47.13;99456.19;5091377;28;19920;-43
2023/06/25 01:27:44;;;;;;;;;;;;;;;25.81;47.60;99463.94;5091226;28;19912;-42
2023/06/25 01:30:10;;;;;;;;;;;;;;;26.03;46.86;99461.22;5091519;28;19912;-43
2023/06/25 01:32:36;;;;;;;;;;;;;;;25.72;47.52;99459.25;5091219;28;20004;-44
2023/06/25 01:35:01;;;;;;;;;;;;;;;25.68;48.03;99463.72;5091335;28;19916;-41
2023/06/25 01:37:28;;;;;;;;;;;;;;;25.80;48.10;99456.88;5091176;28;19916;-42
2023/06/25 01:39:54;;;;;;;;;;;;;;;25.63;47.71;99458.41;5091208;28;19919;-41
2023/06/25 01:42:20;;;;;;;;;;;;;;;25.72;47.23;99450.25;5091235;28;19912;-42
2023/06/25 01:44:45;;;;;;;;;;;;;;;25.88;46.91;99461.59;5091271;28;19939;-44
2023/06/25 01:47:11;;;;;;;;;;;;;;;25.88;47.58;99461.59;5091201;28;19918;-40
2023/06/25 01:49:36;;;;;;;;;;;;;;;25.97;46.83;99462.47;5090775;28;20380;-42
2023/06/25 01:52:02;;;;;;;;;;;;;;;26.00;46.91;99461.03;5090945;28;19918;-44
2023/06/25 01:54:28;;;;;;;;;;;;;;;25.85;46.95;99463.00;5090729;28;20045;-42
2023/06/25 01:56:54;;;;;;;;;;;;;;;25.67;48.31;99464.84;5090699;28;19998;-43
2023/06/25 01:59:19;;;;;;;;;;;;;;;25.87;47.61;99460.78;5090930;28;20002;-43
2023/06/25 02:01:44;;;;;;;;;;;;;;;26.17;46.87;99468.50;5090696;28;19954;-43
2023/06/25 02:04:09;;;;;;;;;;;;;;;25.63;48.83;99455.69;5090701;28;19911;-42
2023/06/25 02:06:35;;;;;;;;;;;;;;;25.61;48.92;99452.47;5090798;28;19919;-43
2023/06/25 02:09:00;;;;;;;;;;;;;;;25.82;48.12;99449.22;5090708;28;20527;-42
2023/06/25 02:11:25;;;;;;;;;;;;;;;25.94;47.93;99449.47;5090663;28;19912;-43
2023/06/25 02:13:51;;;;;;;;;;;;;;;25.82;48.58;99446.50;5090655;28;20014;-42
2023/06/25 02:16:16;;;;;;;;;;;;;;;25.87;48.61;99449.88;5090766;28;19955;-42
2023/06/25 02:18:41;;;;;;;;;;;;;;;25.83;48.76;99448.09;5090346;28;19915;-44
2023/06/25 02:21:07;;;;;;;;;;;;;;;25.53;49.66;99448.56;5090354;28;19932;-42
2023/06/25 02:23:32;;;;;;;;;;;;;;;25.59;49.69;99448.41;5090375;28;20284;-41
2023/06/25 02:25:57;;;;;;;;;;;;;;;25.67;49.31;99453.13;5090265;28;19912;-42
2023/06/25 02:28:22;;;;;;;;;;;;;;;25.71;49.49;99454.13;5090366;28;19920;-43
2023/06/25 02:30:48;;;;;;;;;;;;;;;25.73;49.12;99454.59;5089904;28;20382;-43
2023/06/25 02:33:13;;;;;;;;;;;;;;;25.62;49.98;99455.97;5090260;28;19924;-42
2023/06/25 02:35:39;;;;;;;;;;;;;;;25.74;49.67;99451.59;5090174;28;19912;-43
2023/06/25 02:38:04;;;;;;;;;;;;;;;25.89;49.10;99458.56;5090195;28;19923;-43
2023/06/25 02:40:29;;;;;;;;;;;;;;;25.88;48.97;99450.69;5090295;28;19912;-42
2023/06/25 02:42:55;;;;;;;;;;;;;;;25.78;49.20;99445.50;5090037;28;20466;-43
2023/06/25 02:45:20;;;;;;;;;;;;;;;25.81;49.22;99451.13;5090467;28;20011;-43
2023/06/25 02:47:45;;;;;;;;;;;;;;;25.64;49.54;99457.28;5090360;28;19911;-44
2023/06/25 02:50:11;;;;;;;;;;;;;;;25.39;50.57;99455.19;5090054;28;20352;-42
2023/06/25 02:52:36;;;;;;;;;;;;;;;25.45;50.83;99453.94;5089924;28;20018;-43
2023/06/25 02:55:02;;;;;;;;;;;;;;;25.53;50.44;99448.56;5090274;28;19912;-42
2023/06/25 02:57:30;;;;;;;;;;;;;;;25.67;49.87;99453.94;5090067;28;20279;-42
2023/06/25 02:59:56;;;;;;;;;;;;;;;25.63;50.41;99457.59;5089968;28;19998;-42
2023/06/25 03:02:21;;;;;;;;;;;;;;;25.78;50.11;99454.50;5089921;28;19947;-42
2023/06/25 03:04:46;;;;;;;;;;;;;;;25.92;49.47;99451.69;5090426;28;20245;-42
2023/06/25 03:07:12;;;;;;;;;;;;;;;26.01;49.46;99449.81;5090837;28;19938;-43
2023/06/25 03:09:37;;;;;;;;;;;;;;;26.12;49.58;99456.63;5090876;28;19923;-43
2023/06/25 03:12:02;;;;;;;;;;;;;;;26.02;49.82;99453.34;5090968;28;19985;-43
2023/06/25 03:14:28;;;;;;;;;;;;;;;25.95;50.28;99456.53;5090692;28;20325;-43
2023/06/25 03:16:53;;;;;;;;;;;;;;;25.94;50.55;99450.25;5090942;28;20287;-42
2023/06/25 03:19:18;;;;;;;;;;;;;;;25.85;50.99;99451.31;5090281;28;20003;-42
2023/06/25 03:21:44;;;;;;;;;;;;;;;25.85;50.97;99454.03;5090403;28;19912;-43
2023/06/25 03:24:09;;;;;;;;;;;;;;;26.02;50.85;99456.88;5090701;28;19916;-43
2023/06/25 03:26:34;;;;;;;;;;;;;;;26.04;51.20;99456.56;5090399;28;20360;-43
2023/06/25 03:29:00;;;;;;;;;;;;;;;25.56;53.09;99463.47;5090513;28;20382;-43
2023/06/25 03:31:25;;;;;;;;;;;;;;;25.19;54.61;99457.25;5090405;28;19927;-43
2023/06/25 03:33:50;;;;;;;;;;;;;;;24.83;56.38;99458.03;5090541;28;19959;-43
2023/06/25 03:36:16;;;;;;;;;;;;;;;25.24;55.38;99459.88;5090364;28;19919;-43
2023/06/25 03:38:41;;;;;;;;;;;;;;;25.15;56.38;99462.50;5090388;28;19916;-42
2023/06/25 03:41:06;;;;;;;;;;;;;;;25.44;55.13;99455.06;5090518;28;20406;-43
2023/06/25 03:43:31;;;;;;;;;;;;;;;25.33;55.95;99463.47;5092852;28;19916;-44
2023/06/25 03:45:57;;;;;;;;;;;;;;;25.67;55.39;99456.66;5094228;28;20004;-42
2023/06/25 03:48:22;;;;;;;;;;;;;;;25.17;56.82;99462.19;5094121;28;19920;-42
2023/06/25 03:50:47;;;;;;;;;;;;;;;25.77;55.39;99458.31;5094003;28;20390;-42
2023/06/25 03:53:13;;;;;;;;;;;;;;;26.17;54.10;99465.78;5093753;28;19916;-42
2023/06/25 03:55:38;;;;;;;;;;;;;;;26.22;53.96;99457.47;5093818;28;19912;-42
2023/06/25 03:58:03;;;;;;;;;;;;;;;26.27;53.79;99460.84;5093946;28;19959;-43
2023/06/25 04:00:29;;;;;;;;;;;;;;;26.13;54.32;99458.22;5093823;28;20530;-43
2023/06/25 04:02:55;;;;;;;;;;;;;;;26.32;53.77;99455.25;5093700;28;19912;-43
2023/06/25 04:05:20;;;;;;;;;;;;;;;26.44;53.61;99453.84;5093625;28;20067;-42
2023/06/25 04:07:45;;;;;;;;;;;;;;;26.85;52.55;99456.22;5093722;28;19919;-41
2023/06/25 04:10:10;;;;;;;;;;;;;;;27.08;51.92;99458.81;5093399;28;19912;-42
2023/06/25 04:12:36;;;;;;;;;;;;;;;27.19;51.38;99454.63;5093841;28;19995;-43
2023/06/25 04:15:01;;;;;;;;;;;;;;;27.50;50.69;99448.22;5093705;28;19916;-43
2023/06/25 04:17:27;;;;;;;;;;;;;;;27.28;51.18;99455.47;5093208;28;20368;-44
2023/06/25 04:19:52;;;;;;;;;;;;;;;26.82;52.54;99445.13;5093391;28;20007;-42
2023/06/25 04:22:17;;;;;;;;;;;;;;;27.10;51.84;99453.81;5093346;28;19995;-43
2023/06/25 04:24:42;;;;;;;;;;;;;;;27.38;51.25;99451.59;5093466;28;19996;-42
2023/06/25 04:27:08;;;;;;;;;;;;;;;28.26;48.80;99441.25;5093604;28;20237;-42
2023/06/25 04:29:33;;;;;;;;;;;;;;;28.41;48.19;99445.38;5093525;28;20014;-42
2023/06/25 04:31:59;;;;;;;;;;;;;;;29.23;46.35;99445.81;5093072;28;20261;-42
2023/06/25 04:34:24;;;;;;;;;;;;;;;29.41;45.46;99449.19;5093406;28;19916;-42
2023/06/25 04:36:50;;;;;;;;;;;;;;;29.49;45.27;99443.97;5093287;28;19961;-43
2023/06/25 04:39:15;;;;;;;;;;;;;;;30.09;44.06;99442.53;5092812;28;20384;-43
2023/06/25 04:41:40;;;;;;;;;;;;;;;30.77;42.69;99455.69;5093142;28;19916;-41
2023/06/25 04:44:06;;;;;;;;;;;;;;;30.92;42.29;99453.38;5092877;28;20304;-44
2023/06/25 04:46:31;;;;;;;;;;;;;;;30.08;43.16;99453.84;5093046;28;19992;-43
2023/06/25 04:48:57;;;;;;;;;;;;;;;30.30;43.18;99458.91;5093032;28;20398;-43
2023/06/25 04:51:22;;;;;;;;;;;;;;;30.15;43.79;99465.06;5092793;28;19919;-42
2023/06/25 04:53:47;;;;;;;;;;;;;;;30.59;42.77;99470.81;5092764;28;19912;-44
2023/06/25 04:56:15;;;;;;;;;;;;;;;31.08;41.89;99473.50;5092782;28;20032;-43
2023/06/25 04:58:40;;;;;;;;;;;;;;;30.86;42.35;99482.22;5092998;28;19927;-43
2023/06/25 05:01:05;;;;;;;;;;;;;;;30.33;43.96;99485.69;5093149;28;19912;-49
2023/06/25 05:03:31;;;;;;;;;;;;;;;30.76;42.65;99492.53;5092684;28;20313;-42
2023/06/25 05:05:57;;;;;;;;;;;;;;;31.37;42.05;99502.59;5092454;28;19981;-42
2023/06/25 05:08:22;;;;;;;;;;;;;;;31.25;41.58;99491.66;5092259;28;19948;-43
2023/06/25 05:10:47;;;;;;;;;;;;;;;31.02;41.69;99494.13;5092933;28;20347;-42
2023/06/25 05:13:13;;;;;;;;;;;;;;;30.68;42.23;99498.16;5092549;28;19916;-42
2023/06/25 05:15:40;;;;;;;;;;;;;;;30.90;41.88;99494.97;5092677;28;19961;-42
2023/06/25 05:18:07;;;;;;;;;;;;;;;31.07;41.43;99495.81;5091908;28;19916;-43
2023/06/25 05:20:35;;;;;;;;;;;;;;;30.89;41.08;99489.78;5092427;28;20295;-43
2023/06/25 05:23:01;;;;;;;;;;;;;;;29.69;43.38;99492.47;5092250;28;19951;-42
2023/06/25 05:25:27;;;;;;;;;;;;;;;29.65;44.01;99488.81;5091863;28;19959;-43
2023/06/25 05:27:52;;;;;;;;;;;;;;;30.89;41.86;99487.03;5097503;28;20391;-42
2023/06/25 05:30:17;;;;;;;;;;;;;;;30.37;42.94;99488.56;5091909;28;19969;-43
2023/06/25 05:32:43;;;;;;;;;;;;;;;31.03;41.64;99490.22;5093529;28;19928;-42
2023/06/25 05:35:08;;;;;;;;;;;;;;;31.37;40.96;99496.31;5092288;28;20371;-42
2023/06/25 05:37:33;;;;;;;;;;;;;;;30.64;41.62;99498.03;5092018;28;19920;-43
2023/06/25 05:39:58;;;;;;;;;;;;;;;30.67;41.82;99502.03;5092368;28;20356;-43
2023/06/25 05:42:24;;;;;;;;;;;;;;;31.07;41.10;99493.91;5092305;28;19919;-43
2023/06/25 05:44:49;;;;;;;;;;;;;;;31.40;41.08;99497.56;5091970;28;19951;-43
2023/06/25 05:47:14;;;;;;;;;;;;;;;31.90;39.65;99497.00;5092163;28;20387;-44
2023/06/25 05:49:40;;;;;;;;;;;;;;;31.99;39.67;99499.59;5091922;28;19920;-43
2023/06/25 05:52:05;;;;;;;;;;;;;;;32.32;39.12;99507.53;5092103;28;20338;-43
2023/06/25 05:54:30;;;;;;;;;;;;;;;32.78;38.35;99493.28;5091547;28;19912;-43
2023/06/25 05:56:56;;;;;;;;;;;;;;;33.19;37.54;99499.34;5091166;28;19912;-42
2023/06/25 05:59:21;;;;;;;;;;;;;;;33.47;37.45;99492.81;5089633;28;19920;-42
2023/06/25 06:01:46;;;;;;;;;;;;;;;33.71;36.75;99490.94;5091154;28;20370;-43
2023/06/25 06:04:12;;;;;;;;;;;;;;;33.99;36.44;99494.22;5091341;28;19916;-42
2023/06/25 06:06:37;;;;;;;;;;;;;;;33.85;37.79;99494.75;5090196;28;20449;-42
2023/06/25 06:09:02;;;;;;;;;;;;;;;34.04;37.23;99498.59;5091023;28;20138;-43
2023/06/25 06:11:28;;;;;;;;;;;;;;;34.13;37.54;99490.09;5090783;28;20360;-43
2023/06/25 06:13:53;;;;;;;;;;;;;;;34.30;37.39;99489.63;5091122;28;19915;-42
2023/06/25 06:16:18;;;;;;;;;;;;;;;34.01;36.96;99489.13;5090905;28;20350;-43
2023/06/25 06:18:43;;;;;;;;;;;;;;;34.09;37.59;99487.28;5090555;28;19923;-43
2023/06/25 06:21:09;;;;;;;;;;;;;;;34.21;36.75;99487.09;5090929;28;19958;-43
2023/06/25 06:23:34;;;;;;;;;;;;;;;34.28;36.73;99480.91;5090711;28;20025;-42
2023/06/25 06:25:59;;;;;;;;;;;;;;;35.10;35.81;99491.59;5090931;28;19912;-42
2023/06/25 06:28:25;;;;;;;;;;;;;;;35.11;34.91;99482.13;5090625;28;19943;-42
2023/06/25 06:30:50;;;;;;;;;;;;;;;35.38;34.53;99480.91;5090622;28;19912;-42
2023/06/25 06:33:15;;;;;;;;;;;;;;;35.52;34.09;99482.25;5090376;28;19925;-42
2023/06/25 06:35:40;;;;;;;;;;;;;;;35.83;33.96;99483.78;5090543;28;20329;-43
2023/06/25 06:38:06;;;;;;;;;;;;;;;35.80;33.82;99479.81;5090500;28;19916;-46
2023/06/25 06:40:31;;;;;;;;;;;;;;;34.95;34.23;99471.25;5090950;28;19978;-44
2023/06/25 06:42:56;;;;;;;;;;;;;;;35.18;34.46;99476.72;5090963;28;19912;-43
2023/06/25 06:45:21;;;;;;;;;;;;;;;35.39;34.40;99473.41;5090975;28;20379;-43
2023/06/25 06:47:47;;;;;;;;;;;;;;;35.22;33.78;99463.72;5090977;28;20002;-43
2023/06/25 06:50:12;;;;;;;;;;;;;;;34.91;34.61;99460.16;5090815;28;19912;-45
2023/06/25 06:52:37;;;;;;;;;;;;;;;34.45;35.12;99466.59;5090916;28;19916;-43
2023/06/25 06:55:03;;;;;;;;;;;;;;;34.77;34.83;99459.97;5090903;28;20007;-44
2023/06/25 06:57:28;;;;;;;;;;;;;;;35.13;34.35;99465.94;5090712;28;20275;-44
2023/06/25 06:59:53;;;;;;;;;;;;;;;35.35;34.25;99459.53;5090601;28;19923;-44
2023/06/25 07:02:19;;;;;;;;;;;;;;;35.65;34.14;99460.66;5090712;28;19962;-43
2023/06/25 07:04:45;;;;;;;;;;;;;;;35.94;33.62;99450.66;5090540;28;19912;-44
2023/06/25 07:07:10;;;;;;;;;;;;;;;36.20;33.02;99452.50;5090471;28;19958;-43
2023/06/25 07:09:36;;;;;;;;;;;;;;;36.31;32.97;99439.53;5090626;28;19951;-44
2023/06/25 07:12:01;;;;;;;;;;;;;;;36.59;32.54;99447.22;5090490;28;19969;-44
2023/06/25 07:14:26;;;;;;;;;;;;;;;36.33;32.10;99447.47;5090421;28;19912;-42
2023/06/25 07:16:51;;;;;;;;;;;;;;;36.70;31.78;99446.50;5091810;28;19919;-43
2023/06/25 07:19:17;;;;;;;;;;;;;;;36.69;31.69;99440.19;5094349;28;20012;-45
2023/06/25 07:21:42;;;;;;;;;;;;;;;36.72;31.80;99431.06;5094255;28;20287;-45
2023/06/25 07:24:07;;;;;;;;;;;;;;;36.09;32.01;99432.22;5094231;28;20239;-43
2023/06/25 07:26:33;;;;;;;;;;;;;;;36.08;32.54;99425.88;5094172;28;19947;-43
2023/06/25 07:28:58;;;;;;;;;;;;;;;36.43;32.49;99434.84;5094337;28;20381;-46
2023/06/25 07:31:23;;;;;;;;;;;;;;;36.98;30.78;99430.00;5093990;28;19920;-44
2023/06/25 07:33:48;;;;;;;;;;;;;;;37.08;31.30;99433.22;5093877;28;19973;-43
2023/06/25 07:36:14;;;;;;;;;;;;;;;36.83;31.72;99431.13;5094968;28;20414;-46
2023/06/25 07:38:40;;;;;;;;;;;;;;;36.98;31.28;99426.47;5094119;28;19916;-46
2023/06/25 07:41:05;;;;;;;;;;;;;;;37.42;30.49;99414.34;5093827;28;19912;-44
2023/06/25 07:43:30;;;;;;;;;;;;;;;37.75;30.22;99413.19;5092853;28;19934;-44
2023/06/25 07:45:56;;;;;;;;;;;;;;;37.71;29.98;99411.63;5093276;28;20508;-43
2023/06/25 07:48:21;;;;;;;;;;;;;;;37.36;29.66;99404.81;5093583;28;19966;-43
2023/06/25 07:50:46;;;;;;;;;;;;;;;37.01;29.98;99397.16;5093796;28;19954;-44
2023/06/25 07:53:12;;;;;;;;;;;;;;;37.40;29.17;99402.06;5093426;28;19912;-42
2023/06/25 07:55:41;;;;;;;;;;;;;;;37.54;29.19;99400.06;5093285;28;19912;-43
2023/06/25 07:58:07;;;;;;;;;;;;;;;37.59;29.71;99398.91;5092814;28;19958;-43
2023/06/25 08:00:33;;;;;;;;;;;;;;;37.52;29.29;99396.09;5092994;28;19948;-46
2023/06/25 08:02:58;;;;;;;;;;;;;;;37.69;28.43;99389.03;5093910;28;19988;-43
2023/06/25 08:05:23;;;;;;;;;;;;;;;37.52;28.49;99377.47;5094022;28;20410;-43
2023/06/25 08:07:49;;;;;;;;;;;;;;;37.63;28.64;99376.72;5094136;28;19968;-46
2023/06/25 08:10:14;;;;;;;;;;;;;;;37.87;27.92;99381.50;5094030;28;20426;-45
2023/06/25 08:12:39;;;;;;;;;;;;;;;37.75;28.23;99377.09;5093699;28;20332;-43
2023/06/25 08:15:05;;;;;;;;;;;;;;;37.34;29.25;99354.47;5094141;28;20276;-44
2023/06/25 08:17:30;;;;;;;;;;;;;;;37.47;29.69;99363.19;5093981;28;19923;-43
2023/06/25 08:19:55;;;;;;;;;;;;;;;37.69;29.08;99356.50;5093509;28;19912;-41
2023/06/25 08:22:21;;;;;;;;;;;;;;;37.65;29.87;99352.94;5093716;28;19916;-43
2023/06/25 08:24:46;;;;;;;;;;;;;;;37.85;29.01;99350.56;5093524;28;19912;-43
2023/06/25 08:27:11;;;;;;;;;;;;;;;38.12;28.43;99350.94;5093970;28;20367;-43
2023/06/25 08:29:37;;;;;;;;;;;;;;;38.67;28.33;99346.84;5093298;28;19919;-43
2023/06/25 08:32:02;;;;;;;;;;;;;;;38.42;27.86;99335.75;5093599;28;19920;-43
2023/06/25 08:34:27;;;;;;;;;;;;;;;38.40;28.66;99340.94;5093794;28;19999;-45
2023/06/25 08:36:53;;;;;;;;;;;;;;;38.37;27.74;99344.53;5093590;28;19985;-43
2023/06/25 08:39:18;;;;;;;;;;;;;;;38.08;28.23;99343.78;5093368;28;20003;-42
2023/06/25 08:41:44;;;;;;;;;;;;;;;37.57;28.92;99345.78;5093593;28;19924;-43
2023/06/25 08:44:09;;;;;;;;;;;;;;;37.59;28.44;99337.06;5093419;28;19919;-44
2023/06/25 08:46:35;;;;;;;;;;;;;;;37.48;28.81;99340.59;5093529;28;19919;-43
2023/06/25 08:49:02;;;;;;;;;;;;;;;37.61;28.13;99335.50;5093699;28;19969;-44
2023/06/25 08:51:27;;;;;;;;;;;;;;;37.33;28.69;99334.25;5093202;28;19918;-46
2023/06/25 08:53:55;;;;;;;;;;;;;;;37.39;29.02;99331.88;5093339;28;19912;-43
2023/06/25 08:56:20;;;;;;;;;;;;;;;37.21;27.94;99323.56;5093248;28;20020;-43
2023/06/25 08:58:45;;;;;;;;;;;;;;;36.92;29.19;99322.69;5093316;28;20000;-46
2023/06/25 09:01:12;;;;;;;;;;;;;;;36.36;29.61;99317.28;5093203;28;19935;-43
2023/06/25 09:03:38;;;;;;;;;;;;;;;36.15;29.66;99314.38;5093157;28;19962;-43
2023/06/25 09:06:11;;;;;;;;;;;;;;;36.11;30.14;99308.03;5092996;28;19920;-42
2023/06/25 09:08:38;;;;;;;;;;;;;;;36.21;29.77;99304.53;5093102;28;19961;-44
2023/06/25 09:11:04;;;;;;;;;;;;;;;36.60;29.68;99306.72;5093004;28;19916;-44
2023/06/25 09:13:29;;;;;;;;;;;;;;;36.74;29.26;99305.97;5093127;28;20341;-44
2023/06/25 09:16:00;;;;;;;;;;;;;;;36.38;29.69;99306.59;5093060;28;19912;-43
2023/06/25 09:18:25;;;;;;;;;;;;;;;35.54;31.74;99298.09;5092641;28;19951;-43
2023/06/25 09:20:50;;;;;;;;;;;;;;;36.37;30.62;99291.19;5092805;28;20331;-43
2023/06/25 09:23:20;;;;;;;;;;;;;;;36.79;29.68;99292.53;5092680;28;20420;-46
2023/06/25 09:25:45;;;;;;;;;;;;;;;36.62;28.65;99295.25;5092471;28;19942;-42
2023/06/25 09:28:11;;;;;;;;;;;;;;;36.33;29.10;99295.13;5092831;28;19912;-43
2023/06/25 09:30:38;;;;;;;;;;;;;;;36.54;29.55;99294.41;5092273;28;19973;-44
2023/06/25 09:33:05;;;;;;;;;;;;;;;37.49;28.75;99286.72;5091783;28;19935;-43
2023/06/25 09:35:30;;;;;;;;;;;;;;;37.54;29.16;99289.06;5091420;28;20324;-41
2023/06/25 09:37:56;;;;;;;;;;;;;;;37.09;28.97;99285.06;5092128;28;19974;-44
2023/06/25 09:40:22;;;;;;;;;;;;;;;37.42;28.37;99280.38;5091324;28;19947;-43
2023/06/25 09:42:48;;;;;;;;;;;;;;;37.51;28.51;99269.69;5090969;28;19920;-44
2023/06/25 09:45:16;;;;;;;;;;;;;;;36.86;28.95;99275.16;5090791;28;20404;-44
2023/06/25 09:47:43;;;;;;;;;;;;;;;36.92;28.45;99268.03;5091841;28;19955;-44
2023/06/25 09:50:18;;;;;;;;;;;;;;;36.75;28.43;99261.25;5091786;28;19912;-44
2023/06/25 09:52:55;;;;;;;;;;;;;;;36.70;28.85;99261.63;5092167;28;19939;-43
2023/06/25 09:55:21;;;;;;;;;;;;;;;37.05;28.85;99256.53;5091813;28;19912;-43
2023/06/25 09:57:46;;;;;;;;;;;;;;;37.10;28.22;99247.84;5091888;28;19935;-43
2023/06/25 10:00:12;;;;;;;;;;;;;;;37.28;28.21;99248.69;5092227;28;20257;-42
2023/06/25 10:02:38;;;;;;;;;;;;;;;36.51;29.17;99245.31;5091738;28;19935;-42
2023/06/25 10:05:04;;;;;;;;;;;;;;;36.31;29.70;99237.34;5092035;28;19916;-43
2023/06/25 10:07:30;;;;;;;;;;;;;;;36.21;29.54;99243.63;5091748;28;20368;-43
2023/06/25 10:09:56;;;;;;;;;;;;;;;36.31;29.83;99234.56;5092266;28;19934;-42
2023/06/25 10:12:21;;;;;;;;;;;;;;;36.46;28.45;99231.84;5091799;28;20274;-43
2023/06/25 10:14:47;;;;;;;;;;;;;;;36.53;28.37;99229.09;5091644;28;19947;-43
2023/06/25 10:17:12;;;;;;;;;;;;;;;36.04;29.42;99233.22;5091867;28;19916;-43
2023/06/25 10:19:38;;;;;;;;;;;;;;;36.67;29.16;99228.38;5091685;28;20362;-44
2023/06/25 10:22:07;;;;;;;;;;;;;;;36.62;29.50;99225.97;5092161;28;19916;-47
2023/06/25 10:24:39;;;;;;;;;;;;;;;36.97;28.98;99211.38;5091985;28;19919;-43
2023/06/25 10:27:04;;;;;;;;;;;;;;;37.10;28.65;99209.81;5092047;28;20413;-44
2023/06/25 10:29:38;;;;;;;;;;;;;;;37.05;28.79;99198.31;5092151;28;19912;-45
2023/06/25 10:32:05;;;;;;;;;;;;;;;36.73;28.84;99197.13;5091799;28;19944;-47
2023/06/25 10:34:30;;;;;;;;;;;;;;;36.10;29.97;99196.50;5092118;28;19923;-45
2023/06/25 10:36:59;;;;;;;;;;;;;;;36.58;29.51;99185.19;5091888;28;19912;-45
2023/06/25 10:39:34;;;;;;;;;;;;;;;36.89;28.75;99193.97;5091945;28;19974;-43
2023/06/25 10:42:03;;;;;;;;;;;;;;;37.04;28.74;99178.13;5091967;28;19912;-45
2023/06/25 10:44:28;;;;;;;;;;;;;;;36.74;29.76;99181.28;5091790;28;19912;-45
2023/06/25 10:47:01;;;;;;;;;;;;;;;36.26;30.97;99176.00;5091784;28;20358;-46
2023/06/25 10:49:27;;;;;;;;;;;;;;;35.96;30.75;99171.50;5090312;28;19912;-46
2023/06/25 10:51:55;;;;;;;;;;;;;;;35.88;32.24;99170.69;5089591;28;19916;-45
2023/06/25 10:54:21;;;;;;;;;;;;;;;35.77;31.28;99176.16;5070580;28;19970;-43
2023/06/25 10:56:46;;;;;;;;;;;;;;;35.77;30.64;99181.69;5084743;28;20325;-43
2023/06/25 10:59:12;;;;;;;;;;;;;;;36.06;30.89;99181.81;5087622;28;19928;-43
2023/06/25 11:01:38;;;;;;;;;;;;;;;36.34;30.53;99177.59;5088266;28;20360;-43
2023/06/25 11:04:12;;;;;;;;;;;;;;;36.05;31.10;99174.72;5090448;28;19962;-43
2023/06/25 11:06:38;;;;;;;;;;;;;;;36.33;30.51;99176.81;5090545;28;19912;-43
2023/06/25 11:09:03;;;;;;;;;;;;;;;36.23;30.45;99169.25;5090032;28;19912;-45
2023/06/25 11:11:29;;;;;;;;;;;;;;;36.03;30.64;99171.53;5090823;28;19916;-46
2023/06/25 11:13:54;;;;;;;;;;;;;;;36.12;31.56;99158.13;5089695;28;19916;-43
2023/06/25 11:16:20;;;;;;;;;;;;;;;35.95;30.91;99154.13;5090461;28;19912;-44
2023/06/25 11:18:46;;;;;;;;;;;;;;;35.41;31.98;99153.00;5090168;28;19916;-44
2023/06/25 11:21:13;;;;;;;;;;;;;;;35.45;32.05;99156.56;5090879;28;19912;-44
2023/06/25 11:23:42;;;;;;;;;;;;;;;34.40;32.96;99162.34;5090207;28;19961;-45
2023/06/25 11:26:11;;;;;;;;;;;;;;;34.31;33.41;99162.66;5090581;28;19912;-45
2023/06/25 11:28:37;;;;;;;;;;;;;;;34.34;33.54;99161.88;5091013;28;19913;-43
2023/06/25 11:31:02;;;;;;;;;;;;;;;34.02;33.16;99158.72;5090886;28;19916;-43
2023/06/25 11:33:27;;;;;;;;;;;;;;;34.12;33.70;99157.25;5091015;28;19924;-43
2023/06/25 11:35:53;;;;;;;;;;;;;;;33.86;33.77;99162.47;5090888;28;19912;-47
2023/06/25 11:38:26;;;;;;;;;;;;;;;33.49;34.43;99156.81;5090968;28;19917;-45
2023/06/25 11:40:53;;;;;;;;;;;;;;;33.86;34.02;99156.97;5091139;28;20007;-44
2023/06/25 11:43:21;;;;;;;;;;;;;;;33.47;34.60;99154.44;5091026;28;20046;-44
2023/06/25 11:45:47;;;;;;;;;;;;;;;33.78;34.40;99152.53;5091065;28;19981;-43
2023/06/25 11:48:13;;;;;;;;;;;;;;;34.02;34.37;99156.75;5091238;28;19912;-43
2023/06/25 11:50:38;;;;;;;;;;;;;;;33.77;34.09;99145.41;5090879;28;19912;-43
2023/06/25 11:53:03;;;;;;;;;;;;;;;33.66;34.02;99152.75;5090812;28;19986;-43
2023/06/25 11:55:29;;;;;;;;;;;;;;;33.25;34.39;99155.28;5090603;28;19912;-42
2023/06/25 11:57:55;;;;;;;;;;;;;;;33.10;35.06;99157.00;5090746;28;19963;-42
2023/06/25 12:00:20;;;;;;;;;;;;;;;33.20;34.98;99155.59;5090930;28;19912;-44
2023/06/25 12:02:45;;;;;;;;;;;;;;;33.44;35.64;99157.16;5090798;28;19912;-43
2023/06/25 12:05:10;;;;;;;;;;;;;;;33.43;34.77;99150.03;5093967;28;19958;-44
2023/06/25 12:07:37;;;;;;;;;;;;;;;33.00;35.12;99152.91;5094479;28;20080;-43
2023/06/25 12:10:02;;;;;;;;;;;;;;;32.69;35.58;99160.25;5094457;28;20027;-43
2023/06/25 12:12:27;;;;;;;;;;;;;;;32.46;36.57;99159.38;5094333;28;19919;-43
2023/06/25 12:14:53;;;;;;;;;;;;;;;32.15;36.56;99155.66;5094361;28;19935;-46
2023/06/25 12:17:18;;;;;;;;;;;;;;;32.00;36.92;99162.00;5094259;28;19916;-42
2023/06/25 12:19:43;;;;;;;;;;;;;;;32.66;36.06;99172.00;5094030;28;19912;-43
2023/06/25 12:22:09;;;;;;;;;;;;;;;32.93;36.63;99169.31;5094230;28;19916;-43
2023/06/25 12:24:34;;;;;;;;;;;;;;;33.03;35.42;99176.94;5094058;28;19915;-45
2023/06/25 12:26:59;;;;;;;;;;;;;;;32.92;36.31;99184.25;5094070;28;20288;-43
2023/06/25 12:29:25;;;;;;;;;;;;;;;32.37;37.71;99202.84;5094305;28;19912;-45
2023/06/25 12:31:50;;;;;;;;;;;;;;;32.45;36.95;99221.13;5094072;28;20452;-44
2023/06/25 12:34:15;;;;;;;;;;;;;;;32.82;36.44;99223.41;5094053;28;19916;-43
2023/06/25 12:36:41;;;;;;;;;;;;;;;32.83;36.04;99228.56;5094152;28;20311;-42
2023/06/25 12:39:06;;;;;;;;;;;;;;;32.00;39.07;99220.56;5093766;28;19917;-45
2023/06/25 12:41:31;;;;;;;;;;;;;;;31.32;41.04;99222.53;5093954;28;19954;-44